createdAt,value
2018-11-23T00:02:06.584Z,23.53
2018-11-23T00:04:33.885Z,23.97
2018-11-23T00:07:01.099Z,25.30
2018-11-23T00:09:28.341Z,24.53
2018-11-23T00:11:55.599Z,24.57
2018-11-23T00:14:22.883Z,25.67
2018-11-23T00:16:50.120Z,22.60
2018-11-23T00:19:17.574Z,22.20
2018-11-23T00:21:44.806Z,21.80
2018-11-23T00:24:12.095Z,22.97
2018-11-23T00:26:39.350Z,23.30
2018-11-23T00:29:06.595Z,24.50
2018-11-23T00:31:33.830Z,22.87
2018-11-23T00:34:01.086Z,23.67
2018-11-23T00:36:28.324Z,26.43
2018-11-23T00:38:55.576Z,24.53
2018-11-23T00:41:22.839Z,23.57
2018-11-23T00:43:50.044Z,22.20
2018-11-23T00:46:17.283Z,22.83
2018-11-23T00:48:44.592Z,22.47
2018-11-23T00:51:11.871Z,27.57
2018-11-23T00:53:39.095Z,25.37
2018-11-23T00:56:06.457Z,23.30
2018-11-23T00:58:33.688Z,24.90
2018-11-23T01:01:00.915Z,25.73
2018-11-23T01:03:28.199Z,25.80
2018-11-23T01:05:55.477Z,25.87
2018-11-23T01:08:22.720Z,25.87
2018-11-23T01:10:50.029Z,24.70
2018-11-23T01:13:17.278Z,23.77
2018-11-23T01:15:44.520Z,22.23
2018-11-23T01:18:11.795Z,24.70
2018-11-23T01:20:39.041Z,24.07
2018-11-23T01:23:06.292Z,25.77
2018-11-23T01:25:33.540Z,25.07
2018-11-23T01:28:00.752Z,24.23
2018-11-23T01:30:29.269Z,21.73
2018-11-23T01:32:56.589Z,24.30
2018-11-23T01:35:23.825Z,23.30
2018-11-23T01:37:51.070Z,23.80
2018-11-23T01:40:20.700Z,26.27
2018-11-23T01:42:48.059Z,22.63
2018-11-23T01:45:15.927Z,21.97
2018-11-23T01:47:43.245Z,23.63
2018-11-23T01:50:12.561Z,24.40
2018-11-23T01:52:39.812Z,23.90
2018-11-23T01:55:08.396Z,23.27
2018-11-23T01:57:36.056Z,22.93
2018-11-23T02:00:03.624Z,24.70
2018-11-23T02:02:30.890Z,25.57
2018-11-23T02:04:58.147Z,23.37
2018-11-23T02:07:25.377Z,24.37
2018-11-23T02:09:52.647Z,24.60
2018-11-23T02:12:19.920Z,26.05
2018-11-23T02:14:47.156Z,25.00
2018-11-23T02:17:22.856Z,22.87
2018-11-23T02:19:51.092Z,26.03
2018-11-23T02:22:18.312Z,22.17
2018-11-23T02:24:45.619Z,26.93
2018-11-23T02:27:12.889Z,25.37
2018-11-23T02:29:40.144Z,24.17
2018-11-23T02:32:07.447Z,26.35
2018-11-23T02:34:34.732Z,24.65
2018-11-23T02:39:28.777Z,25.30
2018-11-23T02:41:56.019Z,26.37
2018-11-23T02:44:23.260Z,26.42
2018-11-23T02:46:50.529Z,25.27
2018-11-23T02:49:18.008Z,25.20
2018-11-23T02:51:45.298Z,24.07
2018-11-23T03:06:27.977Z,26.23
2018-11-23T03:09:02.032Z,24.40
2018-11-23T03:11:29.272Z,25.62
2018-11-23T03:13:56.531Z,22.58
2018-11-23T03:16:23.807Z,23.85
2018-11-23T03:18:51.598Z,23.20
2018-11-23T03:21:18.947Z,22.03
2018-11-23T03:23:46.276Z,20.50
2018-11-23T03:26:13.529Z,22.07
2018-11-23T03:28:40.800Z,23.00
2018-11-23T03:31:12.426Z,22.87
2018-11-23T03:33:35.335Z,23.22
2018-11-23T03:36:02.660Z,21.95
2018-11-23T03:38:29.927Z,20.97
2018-11-23T03:40:57.202Z,20.85
2018-11-23T03:43:24.453Z,22.22
2018-11-23T03:45:51.736Z,21.77
2018-11-23T03:48:19.012Z,22.17
2018-11-23T03:50:46.264Z,21.85
2018-11-23T03:53:13.530Z,22.53
2018-11-23T03:55:40.792Z,21.68
2018-11-23T03:58:08.081Z,23.57
2018-11-23T04:00:35.365Z,23.25
2018-11-23T04:03:02.628Z,24.02
2018-11-23T04:05:29.904Z,22.67
2018-11-23T04:07:57.176Z,23.02
2018-11-23T04:10:24.415Z,20.72
2018-11-23T04:12:51.691Z,20.75
2018-11-23T04:15:19.079Z,21.63
2018-11-23T04:17:46.359Z,21.45
2018-11-23T04:20:14.773Z,23.13
2018-11-23T04:22:42.339Z,21.45
2018-11-23T04:25:10.179Z,21.35
2018-11-23T04:27:37.459Z,21.55
2018-11-23T04:30:07.496Z,21.37
2018-11-23T04:32:34.771Z,22.43
2018-11-23T04:35:02.039Z,22.20
2018-11-23T04:37:29.372Z,22.95
2018-11-23T04:39:56.624Z,22.70
2018-11-23T04:42:24.712Z,23.85
2018-11-23T04:44:51.995Z,22.65
2018-11-23T04:47:19.285Z,21.95
2018-11-23T04:49:46.560Z,22.73
2018-11-23T04:52:13.832Z,24.40
2018-11-23T04:54:41.080Z,23.53
2018-11-23T04:57:08.351Z,23.25
2018-11-23T04:59:35.659Z,24.07
2018-11-23T05:02:02.908Z,23.65
2018-11-23T05:04:30.164Z,24.95
2018-11-23T05:06:57.451Z,22.87
2018-11-23T05:09:24.768Z,24.80
2018-11-23T05:11:52.040Z,22.55
2018-11-23T05:14:19.336Z,24.45
2018-11-23T05:16:46.591Z,24.18
2018-11-23T05:19:13.868Z,23.70
2018-11-23T05:21:41.147Z,25.00
2018-11-23T05:24:08.369Z,23.50
2018-11-23T05:26:35.630Z,25.95
2018-11-23T05:29:02.891Z,25.80
2018-11-23T05:31:30.120Z,24.67
2018-11-23T05:33:57.368Z,24.75
2018-11-23T05:36:24.733Z,23.98
2018-11-23T05:38:52.169Z,21.93
2018-11-23T05:41:19.494Z,23.10
2018-11-23T05:43:46.872Z,23.22
2018-11-23T05:46:14.124Z,24.92
2018-11-23T05:48:41.387Z,23.73
2018-11-23T05:51:08.699Z,23.35
2018-11-23T05:53:35.985Z,23.02
2018-11-23T05:56:03.219Z,22.02
2018-11-23T05:58:30.453Z,24.20
2018-11-23T06:08:18.636Z,23.33
2018-11-23T06:10:45.848Z,24.98
2018-11-23T06:13:13.115Z,24.10
2018-11-23T06:15:44.404Z,24.63
2018-11-23T06:18:07.728Z,23.80
2018-11-23T06:20:35.013Z,25.75
2018-11-23T06:23:02.251Z,27.27
2018-11-23T06:25:36.148Z,25.32
2018-11-23T06:28:03.735Z,23.57
2018-11-23T06:30:30.976Z,24.83
2018-11-23T06:33:10.191Z,25.92
2018-11-23T06:35:37.443Z,24.90
2018-11-23T06:38:04.965Z,26.45
2018-11-23T06:40:32.235Z,27.98
2018-11-23T06:42:59.583Z,26.55
2018-11-23T06:45:27.749Z,28.05
2018-11-23T06:47:55.029Z,28.12
2018-11-23T06:50:22.275Z,26.35
2018-11-23T06:52:49.568Z,25.27
2018-11-23T06:55:16.844Z,28.42
2018-11-23T06:57:44.105Z,27.15
2018-11-23T07:00:13.859Z,27.85
2018-11-23T07:02:41.772Z,27.25
2018-11-23T07:05:09.497Z,27.00
2018-11-23T07:07:36.743Z,28.40
2018-11-23T07:10:04.544Z,26.68
2018-11-23T07:12:31.824Z,25.27
2018-11-23T07:14:59.109Z,26.45
2018-11-23T07:17:26.395Z,26.40
2018-11-23T07:19:53.598Z,27.67
2018-11-23T07:22:20.923Z,25.60
2018-11-23T07:24:48.251Z,27.13
2018-11-23T07:27:15.585Z,26.55
2018-11-23T07:29:42.821Z,26.02
2018-11-23T07:32:10.096Z,27.65
2018-11-23T07:34:37.424Z,28.85
2018-11-23T07:37:05.048Z,25.40
2018-11-23T07:40:44.609Z,27.83
2018-11-23T07:43:11.884Z,25.72
2018-11-23T07:45:39.111Z,26.20
2018-11-23T07:48:07.029Z,26.55
2018-11-23T07:50:34.271Z,27.93
2018-11-23T07:53:01.588Z,26.05
2018-11-23T07:55:28.971Z,25.45
2018-11-23T07:57:56.245Z,26.27
2018-11-23T08:00:24.408Z,26.02
2018-11-23T08:02:58.382Z,25.45
2018-11-23T08:05:25.642Z,26.40
2018-11-23T08:07:52.921Z,26.35
2018-11-23T08:10:19.744Z,26.40
2018-11-23T08:12:48.292Z,27.10
2018-11-23T08:15:18.101Z,26.55
2018-11-23T08:17:45.379Z,26.52
2018-11-23T08:20:14.964Z,25.80
2018-11-23T08:22:42.519Z,28.73
2018-11-23T08:25:10.740Z,28.20
2018-11-23T08:27:38.151Z,26.55
2018-11-23T08:30:09.552Z,27.48
2018-11-23T08:32:36.808Z,28.77
2018-11-23T08:35:05.040Z,27.70
2018-11-23T08:37:32.265Z,28.50
2018-11-23T08:39:59.529Z,27.15
2018-11-23T08:42:26.801Z,28.40
2018-11-23T08:44:54.097Z,27.80
2018-11-23T08:47:21.437Z,29.52
2018-11-23T08:49:48.694Z,28.80
2018-11-23T08:52:15.919Z,28.70
2018-11-23T08:54:43.166Z,28.67
2018-11-23T08:57:10.397Z,28.40
2018-11-23T08:59:37.641Z,25.20
2018-11-23T09:02:04.988Z,27.17
2018-11-23T09:04:32.337Z,26.17
2018-11-23T09:06:59.591Z,25.77
2018-11-23T09:09:27.216Z,26.10
2018-11-23T09:11:54.819Z,27.77
2018-11-23T09:14:22.441Z,27.02
2018-11-23T09:16:50.089Z,29.15
2018-11-23T09:19:17.721Z,27.77
2018-11-23T09:21:45.297Z,26.25
2018-11-23T09:24:12.912Z,27.22
2018-11-23T09:26:40.519Z,28.30
2018-11-23T09:29:08.103Z,27.32
2018-11-23T09:31:35.745Z,27.82
2018-11-23T09:34:03.391Z,24.92
2018-11-23T09:36:30.981Z,27.25
2018-11-23T09:38:58.611Z,25.85
2018-11-23T09:41:26.216Z,27.67
2018-11-23T09:43:53.807Z,27.52
2018-11-23T09:46:21.433Z,26.70
2018-11-23T09:48:49.050Z,27.50
2018-11-23T09:51:16.664Z,29.32
2018-11-23T09:53:44.370Z,28.70
2018-11-23T09:56:11.994Z,28.73
2018-11-23T09:58:43.648Z,28.50
2018-11-23T10:03:34.821Z,27.87
2018-11-23T10:06:02.447Z,29.80
2018-11-23T10:08:30.088Z,29.23
2018-11-23T10:10:57.668Z,28.30
2018-11-23T10:13:25.256Z,27.83
2018-11-23T10:15:52.908Z,32.42
2018-11-23T10:18:20.556Z,33.45
2018-11-23T10:20:48.187Z,30.27
2018-11-23T10:23:15.841Z,30.80
2018-11-23T10:25:43.517Z,29.00
2018-11-23T10:28:11.121Z,28.10
2018-11-23T10:30:38.751Z,30.15
2018-11-23T10:33:06.969Z,28.67
2018-11-23T10:35:34.594Z,30.50
2018-11-23T10:38:03.511Z,29.23
2018-11-23T10:40:33.675Z,30.00
2018-11-23T10:43:01.266Z,29.70
2018-11-23T10:45:30.120Z,31.07
2018-11-23T10:47:58.579Z,29.27
2018-11-23T10:50:28.026Z,32.93
2018-11-23T10:52:55.651Z,29.90
2018-11-23T10:55:24.790Z,32.23
2018-11-23T10:57:53.166Z,29.35
2018-11-23T11:00:26.388Z,30.90
2018-11-23T11:03:00.051Z,31.33
2018-11-23T11:05:33.411Z,30.70
2018-11-23T11:08:02.144Z,33.05
2018-11-23T11:10:29.774Z,33.38
2018-11-23T11:12:57.559Z,33.63
2018-11-23T11:15:25.182Z,34.80
2018-11-23T11:17:52.820Z,34.67
2018-11-23T11:20:20.700Z,33.73
2018-11-23T11:22:48.360Z,35.28
2018-11-23T11:25:16.026Z,33.85
2018-11-23T11:27:43.673Z,33.10
2018-11-23T11:30:14.119Z,32.98
2018-11-23T11:32:42.205Z,32.40
2018-11-23T11:35:10.718Z,32.60
2018-11-23T11:37:38.967Z,34.75
2018-11-23T11:40:08.663Z,35.03
2018-11-23T11:42:36.313Z,34.17
2018-11-23T11:45:05.040Z,34.10
2018-11-23T11:47:32.612Z,34.20
2018-11-23T11:50:00.391Z,34.83
2018-11-23T11:52:28.039Z,33.38
2018-11-23T11:54:55.625Z,36.90
2018-11-23T11:57:23.254Z,36.30
2018-11-23T11:59:50.925Z,35.08
2018-11-23T12:02:18.578Z,37.55
2018-11-23T12:04:46.190Z,36.25
2018-11-23T12:07:13.808Z,37.05
2018-11-23T12:09:41.411Z,37.97
2018-11-23T12:12:09.060Z,41.40
2018-11-23T12:14:36.668Z,37.17
2018-11-23T12:17:04.527Z,36.00
2018-11-23T12:19:32.225Z,38.78
2018-11-23T12:21:59.831Z,37.80
2018-11-23T12:34:15.597Z,36.27
2018-11-23T12:36:43.304Z,40.80
2018-11-23T12:39:10.913Z,39.20
2018-11-23T12:41:38.548Z,38.55
2018-11-23T12:44:06.151Z,39.73
2018-11-23T12:46:33.781Z,42.33
2018-11-23T12:49:01.416Z,41.18
2018-11-23T12:51:29.029Z,41.02
2018-11-23T12:53:56.601Z,40.83
2018-11-23T12:56:24.254Z,40.10
2018-11-23T12:58:51.839Z,42.73
2018-11-23T13:01:19.447Z,42.33
2018-11-23T13:03:47.076Z,43.02
2018-11-23T13:06:14.684Z,43.23
2018-11-23T13:08:42.948Z,41.73
2018-11-23T13:11:10.599Z,44.95
2018-11-23T13:13:38.258Z,46.00
2018-11-23T13:16:05.850Z,45.03
2018-11-23T13:18:33.483Z,45.60
2018-11-23T13:21:01.083Z,44.75
2018-11-23T13:23:28.678Z,45.52
2018-11-23T13:25:56.335Z,45.75
2018-11-23T13:28:23.933Z,45.85
2018-11-23T13:30:51.527Z,44.90
2018-11-23T13:33:19.167Z,44.20
2018-11-23T13:35:46.787Z,44.60
2018-11-23T13:38:14.380Z,41.98
2018-11-23T13:40:42.065Z,42.87
2018-11-23T13:43:09.687Z,43.80
2018-11-23T13:45:37.331Z,43.20
2018-11-23T13:48:05.048Z,49.75
2018-11-23T13:50:32.674Z,47.35
2018-11-23T13:53:01.390Z,44.73
2018-11-23T13:55:29.101Z,44.50
2018-11-23T13:57:56.734Z,46.00
2018-11-23T14:00:25.629Z,46.42
2018-11-23T14:02:53.335Z,47.80
2018-11-23T14:05:23.159Z,49.95
2018-11-23T14:07:52.209Z,46.85
2018-11-23T14:10:21.257Z,47.80
2018-11-23T14:12:49.026Z,48.20
2018-11-23T14:15:22.072Z,48.63
2018-11-23T14:17:50.660Z,45.20
2018-11-23T14:25:15.329Z,40.47
2018-11-23T14:27:44.357Z,45.45
2018-11-23T14:30:15.083Z,45.45
2018-11-23T14:32:42.736Z,42.50
2018-11-23T14:35:12.747Z,45.33
2018-11-23T14:37:40.732Z,46.30
2018-11-23T14:40:09.375Z,46.90
2018-11-23T14:42:37.275Z,47.58
2018-11-23T14:45:08.143Z,49.55
2018-11-23T14:47:35.741Z,47.80
2018-11-23T14:50:03.418Z,50.50
2018-11-23T14:52:31.090Z,57.13
2018-11-23T14:54:58.674Z,51.98
2018-11-23T14:57:26.295Z,49.60
2018-11-23T14:59:53.919Z,52.78
2018-11-23T15:02:21.536Z,52.15
2018-11-23T15:04:49.445Z,50.80
2018-11-23T15:07:17.091Z,43.67
2018-11-23T15:09:45.328Z,43.93
2018-11-23T15:12:12.936Z,41.47
2018-11-23T15:36:43.634Z,46.27
2018-11-23T15:39:12.351Z,51.05
2018-11-23T15:41:39.971Z,50.50
2018-11-23T15:44:07.959Z,55.33
2018-11-23T15:46:35.580Z,57.58
2018-11-23T15:49:03.239Z,55.23
2018-11-23T15:51:30.843Z,61.90
2018-11-23T15:53:58.449Z,61.90
2018-11-23T15:56:26.052Z,66.25
2018-11-23T15:58:53.675Z,68.95
2018-11-23T16:01:21.283Z,64.62
2018-11-23T16:03:48.975Z,70.78
2018-11-23T16:06:16.632Z,68.75
2018-11-23T16:08:44.276Z,63.73
2018-11-23T16:11:12.007Z,66.95
2018-11-23T16:13:39.638Z,71.80
2018-11-23T16:16:07.280Z,73.15
2018-11-23T16:18:34.917Z,77.78
2018-11-23T16:21:02.652Z,81.83
2018-11-23T16:23:30.248Z,77.57
2018-11-23T16:25:57.980Z,74.65
2018-11-23T16:28:25.613Z,83.82
2018-11-23T16:30:53.217Z,81.17
2018-11-23T16:33:22.206Z,80.67
2018-11-23T16:35:49.956Z,81.20
2018-11-23T16:38:19.010Z,76.20
2018-11-23T16:40:48.416Z,79.05
2018-11-23T16:43:16.500Z,84.62
2018-11-23T16:45:44.730Z,85.47
2018-11-23T16:48:13.240Z,74.03
2018-11-23T16:50:40.967Z,78.70
2018-11-23T16:53:08.720Z,75.75
2018-11-23T16:55:36.339Z,74.25
2018-11-23T16:58:06.379Z,68.50
2018-11-23T17:00:34.875Z,79.32
2018-11-23T17:03:04.465Z,80.22
2018-11-23T17:05:33.507Z,76.87
2018-11-23T17:08:00.807Z,80.20
2018-11-23T17:10:28.073Z,74.53
2018-11-23T17:12:55.355Z,72.37
2018-11-23T17:15:24.036Z,74.07
2018-11-23T17:17:51.339Z,75.65
2018-11-23T17:20:20.932Z,81.80
2018-11-23T17:22:50.221Z,76.77
2018-11-23T17:25:18.079Z,75.20
2018-11-23T17:27:45.438Z,76.82
2018-11-23T17:30:18.013Z,64.65
2018-11-23T17:35:42.004Z,74.10
2018-11-23T17:38:09.354Z,77.42
2018-11-23T17:40:38.048Z,78.33
2018-11-23T17:43:05.405Z,85.07
2018-11-23T17:45:33.438Z,88.35
2018-11-23T17:48:00.894Z,90.70
2018-11-23T17:50:30.052Z,91.27
2018-11-23T17:52:57.767Z,79.05
2018-11-23T17:55:25.067Z,85.25
2018-11-23T17:57:53.279Z,79.65
2018-11-23T18:00:23.960Z,78.60
2018-11-23T18:02:51.888Z,79.72
2018-11-23T18:05:20.037Z,77.77
2018-11-23T18:07:47.663Z,86.42
2018-11-23T18:10:16.511Z,81.65
2018-11-23T18:12:44.307Z,81.80
2018-11-23T18:15:15.743Z,82.07
2018-11-23T18:17:43.311Z,81.55
2018-11-23T18:20:12.228Z,91.30
2018-11-23T18:22:39.823Z,90.60
2018-11-23T18:25:12.060Z,93.30
2018-11-23T18:27:39.403Z,89.67
2018-11-23T18:30:08.537Z,90.53
2018-11-23T18:32:35.784Z,98.20
2018-11-23T18:35:03.204Z,96.28
2018-11-23T18:37:30.517Z,108.83
2018-11-23T18:39:57.800Z,99.60
2018-11-23T18:42:25.018Z,108.37
2018-11-23T18:44:52.381Z,95.67
2018-11-23T18:47:19.626Z,103.22
2018-11-23T18:49:46.998Z,95.57
2018-11-23T18:52:16.140Z,97.65
2018-11-23T18:54:43.448Z,103.20
2018-11-23T18:57:10.803Z,100.13
2018-11-23T18:59:38.124Z,110.20
2018-11-23T19:02:05.396Z,102.43
2018-11-23T19:04:32.644Z,89.35
2018-11-23T19:06:59.984Z,85.35
2018-11-23T19:09:27.261Z,88.22
2018-11-23T19:11:54.549Z,90.70
2018-11-23T19:14:21.823Z,97.65
2018-11-23T19:16:49.117Z,98.90
2018-11-23T19:19:16.420Z,85.27
2018-11-23T19:21:43.721Z,91.97
2018-11-23T19:24:11.038Z,88.93
2018-11-23T19:26:38.294Z,87.47
2018-11-23T19:29:05.577Z,86.60
2018-11-23T19:31:32.830Z,83.97
2018-11-23T19:34:06.901Z,88.82
2018-11-23T19:36:34.135Z,91.75
2018-11-23T19:39:01.391Z,77.50
2018-11-23T19:41:28.758Z,84.32
2018-11-23T19:43:56.065Z,80.47
2018-11-23T19:46:23.305Z,81.30
2018-11-23T19:48:50.992Z,83.52
2018-11-23T19:51:18.250Z,83.27
2018-11-23T19:53:45.538Z,84.97
2018-11-23T19:56:12.868Z,76.82
2018-11-23T19:58:40.119Z,78.35
2018-11-23T20:01:07.418Z,81.78
2018-11-23T20:03:34.712Z,84.25
2018-11-23T20:06:01.985Z,74.53
2018-11-23T20:08:29.271Z,76.87
2018-11-23T20:10:56.549Z,80.30
2018-11-23T20:13:23.788Z,80.12
2018-11-23T20:15:51.023Z,74.95
2018-11-23T20:18:18.292Z,68.45
2018-11-23T20:20:45.588Z,76.28
2018-11-23T20:23:12.892Z,79.72
2018-11-23T20:25:40.196Z,87.80
2018-11-23T20:28:07.466Z,66.12
2018-11-23T20:30:34.731Z,74.58
2018-11-23T20:33:01.971Z,77.10
2018-11-23T20:35:29.204Z,69.37
2018-11-23T20:37:56.465Z,74.32
2018-11-23T20:40:23.776Z,91.47
2018-11-23T20:42:51.195Z,83.60
2018-11-23T20:45:18.551Z,76.77
2018-11-23T20:47:45.895Z,76.28
2018-11-23T20:50:14.028Z,76.87
2018-11-23T20:52:41.274Z,75.08
2018-11-23T20:55:11.860Z,69.30
2018-11-23T20:57:39.111Z,65.33
2018-11-23T21:00:10.039Z,73.90
2018-11-23T21:02:37.355Z,64.05
2018-11-23T21:05:06.168Z,58.80
2018-11-23T21:07:33.384Z,72.33
2018-11-23T21:10:00.648Z,61.10
2018-11-23T21:12:27.891Z,63.50
2018-11-23T21:14:55.177Z,58.33
2018-11-23T21:17:22.508Z,63.80
2018-11-23T21:19:49.819Z,57.17
2018-11-23T21:22:17.110Z,55.52
2018-11-23T21:24:44.367Z,66.73
2018-11-23T21:27:11.620Z,60.05
2018-11-23T21:29:38.843Z,61.68
2018-11-23T21:32:06.118Z,61.18
2018-11-23T21:34:33.438Z,58.60
2018-11-23T21:37:00.718Z,51.50
2018-11-23T21:39:28.032Z,67.97
2018-11-23T21:41:55.283Z,72.30
2018-11-23T21:44:22.545Z,70.72
2018-11-23T21:46:49.847Z,62.65
2018-11-23T21:49:17.138Z,69.90
2018-11-23T21:51:44.366Z,81.02
2018-11-23T21:54:11.676Z,88.10
2018-11-23T21:56:38.932Z,91.53
2018-11-23T21:59:06.171Z,85.70
2018-11-23T22:01:33.433Z,79.42
2018-11-23T22:04:06.330Z,87.60
2018-11-23T22:06:27.976Z,67.97
2018-11-23T22:08:55.228Z,78.60
2018-11-23T22:11:22.480Z,66.62
2018-11-23T22:13:49.807Z,69.40
2018-11-23T22:16:17.131Z,67.15
2018-11-23T22:18:44.393Z,70.10
2018-11-23T22:21:11.615Z,59.70
2018-11-23T22:23:38.892Z,65.30
2018-11-23T22:26:06.109Z,67.17
2018-11-23T22:28:33.351Z,76.42
2018-11-23T22:31:00.640Z,78.42
2018-11-23T22:33:27.903Z,63.05
2018-11-23T22:35:55.172Z,68.28
2018-11-23T22:38:22.447Z,66.83
2018-11-23T22:40:49.759Z,71.07
2018-11-23T22:43:16.996Z,76.05
2018-11-23T22:45:44.307Z,69.35
2018-11-23T22:48:11.580Z,81.08
2018-11-23T22:50:38.835Z,74.10
2018-11-23T22:53:06.158Z,80.07
2018-11-23T22:55:33.428Z,75.95
2018-11-23T22:58:00.685Z,82.55
2018-11-23T23:00:33.628Z,83.97
2018-11-23T23:03:00.915Z,73.75
2018-11-23T23:05:28.160Z,66.70
2018-11-23T23:07:55.457Z,85.07
2018-11-23T23:10:22.722Z,74.85
2018-11-23T23:12:49.964Z,71.82
2018-11-23T23:15:17.343Z,70.83
2018-11-23T23:17:44.615Z,69.77
2018-11-23T23:20:13.112Z,66.87
2018-11-23T23:22:40.372Z,76.62
2018-11-23T23:25:08.734Z,76.70
2018-11-23T23:27:36.014Z,71.95
2018-11-23T23:30:03.675Z,67.12
2018-11-23T23:32:30.931Z,69.50
2018-11-23T23:34:58.166Z,80.77
2018-11-23T23:37:25.438Z,78.20
2018-11-23T23:39:52.662Z,71.15
2018-11-23T23:42:19.902Z,71.17
2018-11-23T23:44:47.175Z,68.28
2018-11-23T23:47:14.451Z,74.17
2018-11-23T23:49:41.847Z,66.80
2018-11-23T23:52:09.142Z,73.05
2018-11-23T23:54:36.415Z,73.10
2018-11-23T23:57:03.694Z,67.95
2018-11-23T23:59:31.027Z,63.47
